עמוד ראשי
METAR-TAF:

METAR-TAF

שדות תעופה :

Nogales, אריזונה, ארצות הברית

קו רוחב: 31-25-15N, קו אורך: 110-50-45W, גובה: 1198מטר

תצפית מזג אוויר נוכחית

הדו"ח נערך לפני 39דקות, בשעה 07:54 UTC
רוח 4קשר מכיוון מזרח
טמפרטורת 24 צלסיוס
לחות 24%
לחץ 1014 hPa
ראות: 16.1קילומטר
שמיים נקיים

METAR: KOLS 160754Z AUTO 10004KT 10SM CLR 24/02 A2994 RMK AO2 SLP055 T02390017

זמן: 01:33 (08:33 UTC)

תחזית

הדו"ח נערך לפני 3 שעות ו 13דקות, בשעה 05:20 UTC
תחזית בתוקף מ 16 ב 06 UTC עד 17 ב 06 UTC
רוח 3קשר עם כיוונים משתנים
ראות: 10קילומטר
שמיים נקיים
מ 16 ב 2000UTC
רוח 12קשר מכיוון דרום-מערב עם משבים עד 20קשר
ראות: 10קילומטר
שמיים נקיים
מ 17 ב 0300UTC
רוח 7קשר מכיוון דרום-מערב
ראות: 10קילומטר
שמיים נקיים

TAF: KOLS 160520Z 1606/1706 VRB03KT P6SM SKC FM162000 23012G20KT P6SM SKC FM170300 22007KT P6SM SKC

תצפיות ותחזיות מזג אוויר לגבי יותר מ- 4,000 שדות תעופה ברחבי העולם. דוחות METAR ו- TAF.

התחנות הזמינות מסומנות בנקודות צהובות ואדומות על גבי המפה.

העבר את העכבר לנקודה הצבעונית על מנת לראות את שם התחנה.

לאחר מכן, לחץ כדי לראות את תוכן ואת תחזיות מזג האוויר.

כדי לשנות את המפה: לחץ על הכפתורים הירוקים עם הפלוס השחור כדי להתקרב; על הכפתור הירוק עם המקף כדי להתרחק; או בחיצים הירוקים למפות סמוכות.


METAR-TAF: